createdAt,value
2023-02-27T09:57:16.916Z,-12.89
2023-02-27T10:02:27.924Z,-12.67
2023-02-27T10:07:35.475Z,-12.79
2023-02-27T10:12:46.545Z,-12.76
2023-02-27T10:17:52.420Z,-13.06
2023-02-27T10:22:56.635Z,-13.43
2023-02-27T10:28:09.993Z,-13.21
2023-02-27T10:33:19.990Z,-12.91
2023-02-27T10:38:29.701Z,-12.31
2023-02-27T10:43:34.588Z,-11.82
2023-02-27T10:48:37.980Z,-11.82
2023-02-27T10:53:57.395Z,-11.69
2023-02-27T10:59:06.061Z,-11.82
2023-02-27T11:04:09.561Z,-11.40
2023-02-27T11:09:14.538Z,-11.77
2023-02-27T11:14:36.434Z,-11.72
2023-02-27T11:19:41.549Z,-11.80
2023-02-27T11:24:45.136Z,-11.98
2023-02-27T11:29:56.924Z,-11.51
2023-02-27T11:35:05.558Z,-11.86
2023-02-27T11:40:15.580Z,-12.15
2023-02-27T11:46:04.153Z,-11.96
2023-02-27T11:51:06.823Z,-11.89
2023-02-27T11:56:12.008Z,-12.21
2023-02-27T12:01:19.738Z,-11.95
2023-02-27T12:06:29.915Z,-11.67
2023-02-27T12:11:37.241Z,-11.58
2023-02-27T12:16:42.246Z,-11.75
2023-02-27T12:21:49.689Z,-11.77
2023-02-27T12:26:56.880Z,-11.82
2023-02-27T12:32:02.088Z,-11.75
2023-02-27T12:37:11.018Z,-11.95
2023-02-27T12:42:38.781Z,-11.26
2023-02-27T12:47:47.715Z,-11.38
2023-02-27T12:52:59.531Z,-11.71
2023-02-27T12:58:17.440Z,-11.40
2023-02-27T13:03:23.079Z,-11.54
2023-02-27T13:08:40.023Z,-11.49
2023-02-27T13:13:45.280Z,-11.68
2023-02-27T13:18:52.200Z,-11.89
2023-02-27T13:24:03.890Z,-11.61
2023-02-27T13:29:07.842Z,-11.43
2023-02-27T13:34:17.121Z,-11.37
2023-02-27T13:39:53.698Z,-11.52
2023-02-27T13:44:58.122Z,-11.37
2023-02-27T13:50:02.546Z,-11.67
2023-02-27T13:55:26.291Z,-11.70
2023-02-27T14:00:32.782Z,-11.91
2023-02-27T14:05:37.841Z,-11.85
2023-02-27T14:10:51.358Z,-11.84
2023-02-27T14:16:00.376Z,-11.79
2023-02-27T14:21:04.228Z,-11.95
2023-02-27T14:26:15.580Z,-11.97
2023-02-27T14:31:26.229Z,-11.88
2023-02-27T14:36:34.550Z,-11.61
2023-02-27T14:41:44.822Z,-11.96
2023-02-27T14:46:51.210Z,-12.03
2023-02-27T14:51:54.846Z,-11.97
2023-02-27T14:57:01.178Z,-12.20
2023-02-27T15:02:05.218Z,-11.98
2023-02-27T15:07:18.251Z,-12.24
2023-02-27T15:12:23.801Z,-12.44
2023-02-27T15:17:28.297Z,-12.34
2023-02-27T15:22:38.852Z,-12.44
2023-02-27T15:27:44.415Z,-12.35
2023-02-27T15:32:48.980Z,-12.21
2023-02-27T15:38:08.495Z,-12.11
2023-02-27T15:43:13.283Z,-12.06
2023-02-27T15:48:18.205Z,-12.18
2023-02-27T15:53:22.312Z,-12.37
2023-02-27T15:58:28.607Z,-12.51
2023-02-27T16:03:34.151Z,-12.54
2023-02-27T16:08:37.532Z,-12.56
2023-02-27T16:13:42.953Z,-12.50
2023-02-27T16:18:48.605Z,-12.43
2023-02-27T16:23:53.915Z,-12.62
2023-02-27T16:29:00.372Z,-12.71
2023-02-27T16:34:15.329Z,-12.85
2023-02-27T16:39:18.655Z,-12.74
2023-02-27T16:44:26.014Z,-12.90
2023-02-27T16:49:32.038Z,-12.81
2023-02-27T16:54:36.644Z,-12.77
2023-02-27T16:59:41.627Z,-13.21
2023-02-27T17:04:47.767Z,-13.50
2023-02-27T17:09:51.295Z,-13.37
2023-02-27T17:14:56.269Z,-13.38
2023-02-27T17:19:59.735Z,-13.46
2023-02-27T17:25:03.180Z,-13.67
2023-02-27T17:30:09.279Z,-13.51
2023-02-27T17:35:12.637Z,-13.39
2023-02-27T17:40:15.908Z,-13.27
2023-02-27T17:45:21.460Z,-13.53
2023-02-27T17:50:24.833Z,-13.72
2023-02-27T17:55:28.397Z,-13.91
2023-02-27T18:00:35.686Z,-13.83
2023-02-27T18:05:39.144Z,-13.90
2023-02-27T18:10:47.896Z,-14.12
2023-02-27T18:15:53.085Z,-14.22
2023-02-27T18:21:03.006Z,-14.39
2023-02-27T18:26:07.148Z,-14.57
2023-02-27T18:31:20.369Z,-14.71
2023-02-27T18:36:26.782Z,-14.66
2023-02-27T18:41:33.035Z,-14.56
2023-02-27T18:46:38.272Z,-14.44
2023-02-27T18:51:41.660Z,-14.48
2023-02-27T18:56:45.111Z,-14.53
2023-02-27T19:01:49.839Z,-14.39
2023-02-27T19:06:55.664Z,-14.39
2023-02-27T19:12:01.505Z,-14.34
2023-02-27T19:17:06.338Z,-14.37
2023-02-27T19:22:12.076Z,-14.47
2023-02-27T19:27:17.074Z,-14.61
2023-02-27T19:32:24.253Z,-14.67
2023-02-27T19:37:27.719Z,-14.76
2023-02-27T19:42:33.095Z,-14.80
2023-02-27T19:47:39.619Z,-14.62
2023-02-27T19:52:43.291Z,-14.64
2023-02-27T19:57:47.073Z,-14.63
2023-02-27T20:02:57.155Z,-14.79
2023-02-27T20:08:02.769Z,-14.94
2023-02-27T20:13:08.714Z,-14.90
2023-02-27T20:18:14.628Z,-15.01
2023-02-27T20:23:18.230Z,-15.08
2023-02-27T20:28:23.112Z,-15.11
2023-02-27T20:33:28.744Z,-15.24
2023-02-27T20:38:33.575Z,-15.24
2023-02-27T20:43:38.835Z,-15.12
2023-02-27T20:48:46.069Z,-15.14
2023-02-27T20:53:51.533Z,-15.18
2023-02-27T20:58:57.993Z,-15.36
2023-02-27T21:04:21.276Z,-15.42
2023-02-27T21:10:20.111Z,-15.51
2023-02-27T21:15:27.050Z,-15.54
2023-02-27T21:20:42.939Z,-15.41
2023-02-27T21:25:49.513Z,-15.26
2023-02-27T21:30:55.130Z,-15.36
2023-02-27T21:36:04.735Z,-15.22
2023-02-27T21:41:12.708Z,-15.36
2023-02-27T21:46:16.232Z,-15.34
2023-02-27T21:51:33.262Z,-15.28
2023-02-27T21:56:46.193Z,-15.47
2023-02-27T22:01:50.552Z,-15.50
2023-02-27T22:06:56.278Z,-15.26
2023-02-27T22:12:00.299Z,-15.15
2023-02-27T22:17:03.913Z,-15.29
2023-02-27T22:22:08.665Z,-15.38
2023-02-27T22:27:12.263Z,-15.32
2023-02-27T22:32:15.740Z,-15.31
